createdAt,value
2023-04-04T00:01:52.628Z,-2.67
2023-04-04T00:04:59.248Z,-2.68
2023-04-04T00:08:05.300Z,-2.73
2023-04-04T00:11:15.049Z,-2.73
2023-04-04T00:14:21.216Z,-2.87
2023-04-04T00:17:27.949Z,-2.85
2023-04-04T00:20:33.819Z,-2.74
2023-04-04T00:23:40.823Z,-2.75
2023-04-04T00:26:49.451Z,-2.73
2023-04-04T00:29:56.254Z,-2.74
2023-04-04T00:33:02.431Z,-2.77
2023-04-04T00:36:09.585Z,-2.72
2023-04-04T00:39:15.359Z,-2.73
2023-04-04T00:42:25.700Z,-2.80
2023-04-04T00:45:32.082Z,-2.86
2023-04-04T00:48:40.941Z,-2.89
2023-04-04T00:51:46.737Z,-2.79
2023-04-04T00:54:54.179Z,-2.86
2023-04-04T00:58:04.032Z,-2.89
2023-04-04T01:01:11.789Z,-2.96
2023-04-04T01:04:18.069Z,-3.10
2023-04-04T01:07:25.062Z,-3.16
2023-04-04T01:10:33.665Z,-3.14
2023-04-04T01:13:43.804Z,-3.19
2023-04-04T01:16:54.725Z,-3.30
2023-04-04T01:20:14.516Z,-3.30
2023-04-04T01:23:38.477Z,-3.31
2023-04-04T01:26:49.209Z,-3.43
2023-04-04T01:29:55.951Z,-3.33
2023-04-04T01:33:23.607Z,-3.28
2023-04-04T01:36:42.666Z,-3.38
2023-04-04T01:39:57.582Z,-3.44
2023-04-04T01:43:08.191Z,-3.55
2023-04-04T01:46:15.007Z,-3.60
2023-04-04T01:49:22.689Z,-3.60
2023-04-04T01:52:28.646Z,-3.62
2023-04-04T01:55:35.392Z,-3.69
2023-04-04T01:58:44.744Z,-3.70
2023-04-04T02:01:52.373Z,-3.64
2023-04-04T02:04:58.347Z,-3.66
2023-04-04T02:08:05.116Z,-3.68
2023-04-04T02:11:23.252Z,-3.74
2023-04-04T02:14:33.297Z,-3.86
2023-04-04T02:17:40.301Z,-3.83
2023-04-04T02:20:47.263Z,-3.76
2023-04-04T02:23:53.116Z,-3.78
2023-04-04T02:27:00.637Z,-3.97
2023-04-04T02:30:11.233Z,-3.90
2023-04-04T02:33:17.977Z,-4.01
2023-04-04T02:36:24.470Z,-4.02
2023-04-04T02:39:32.885Z,-4.03
2023-04-04T02:42:38.943Z,-4.15
2023-04-04T02:45:48.372Z,-4.23
2023-04-04T02:49:04.019Z,-4.30
2023-04-04T02:52:11.985Z,-4.21
2023-04-04T02:55:21.833Z,-4.24
2023-04-04T02:58:28.663Z,-4.15
2023-04-04T03:01:37.276Z,-4.15
2023-04-04T03:04:44.881Z,-4.11
2023-04-04T03:07:50.735Z,-4.12
2023-04-04T03:10:57.474Z,-4.09
2023-04-04T03:14:03.729Z,-4.07
2023-04-04T03:17:20.061Z,-4.11
2023-04-04T03:20:26.278Z,-4.05
2023-04-04T03:23:33.118Z,-4.07
2023-04-04T03:26:39.023Z,-4.16
2023-04-04T03:29:46.169Z,-4.12
2023-04-04T03:32:55.619Z,-4.14
2023-04-04T03:36:02.911Z,-4.18
2023-04-04T03:39:09.657Z,-4.20
2023-04-04T03:42:16.402Z,-4.27
2023-04-04T03:45:22.397Z,-4.37
2023-04-04T03:48:32.496Z,-4.34
2023-04-04T03:51:38.335Z,-4.51
2023-04-04T03:54:45.120Z,-4.39
2023-04-04T03:57:51.111Z,-4.44
2023-04-04T04:00:59.529Z,-4.39
2023-04-04T04:04:11.454Z,-4.47
2023-04-04T04:07:19.909Z,-4.48
2023-04-04T04:10:25.786Z,-4.51
2023-04-04T04:13:32.599Z,-4.41
2023-04-04T04:16:43.360Z,-4.40
2023-04-04T04:19:56.752Z,-4.34
2023-04-04T04:23:03.380Z,-4.42
2023-04-04T04:26:10.272Z,-4.42
2023-04-04T04:29:16.731Z,-4.47
2023-04-04T04:32:23.940Z,-4.39
2023-04-04T04:35:35.040Z,-4.36
2023-04-04T04:38:42.113Z,-4.40
2023-04-04T04:41:47.972Z,-4.34
2023-04-04T04:44:54.919Z,-4.31
2023-04-04T04:48:01.677Z,-4.19
2023-04-04T04:51:12.406Z,-4.07
2023-04-04T04:54:23.100Z,-4.02
2023-04-04T04:57:34.688Z,-4.08
2023-04-04T05:00:44.864Z,-4.10
2023-04-04T05:03:53.358Z,-4.19
2023-04-04T05:07:08.650Z,-4.11
2023-04-04T05:10:15.662Z,-4.05
2023-04-04T05:13:21.965Z,-3.99
2023-04-04T05:16:31.535Z,-3.99
2023-04-04T05:19:39.171Z,-3.97
2023-04-04T05:22:51.528Z,-3.95
2023-04-04T05:26:04.140Z,-4.00
2023-04-04T05:29:13.823Z,-3.82
2023-04-04T05:32:24.242Z,-3.89
2023-04-04T05:35:41.642Z,-3.91
2023-04-04T05:38:50.386Z,-4.37
2023-04-04T05:41:59.518Z,-3.97
2023-04-04T05:45:08.401Z,-3.88
2023-04-04T05:48:18.700Z,-3.97
2023-04-04T05:51:28.378Z,-3.77
2023-04-04T05:54:51.515Z,-3.70
2023-04-04T05:58:05.189Z,-3.69
2023-04-04T06:01:23.908Z,-3.55
2023-04-04T06:04:32.364Z,-3.49
2023-04-04T06:07:41.612Z,-3.54
2023-04-04T06:10:50.652Z,-3.61
2023-04-04T06:13:57.480Z,-3.55
2023-04-04T06:17:04.712Z,-3.44
2023-04-04T06:20:13.173Z,-3.49
2023-04-04T06:23:19.839Z,-3.30
2023-04-04T06:26:31.951Z,-3.41
2023-04-04T06:29:40.511Z,-3.41
2023-04-04T06:32:48.654Z,-3.30
2023-04-04T06:35:58.307Z,-3.41
2023-04-04T06:39:04.953Z,-3.61
2023-04-04T06:42:14.419Z,-3.53
2023-04-04T06:45:27.977Z,-3.48
2023-04-04T06:48:35.082Z,-3.43
2023-04-04T06:51:44.895Z,-3.28
2023-04-04T06:54:51.504Z,-3.17
2023-04-04T06:58:01.118Z,-3.19
2023-04-04T07:01:07.461Z,-3.17
2023-04-04T07:04:14.173Z,-3.14
2023-04-04T07:07:19.953Z,-3.28
2023-04-04T07:10:28.363Z,-3.11
2023-04-04T07:13:36.874Z,-2.84
2023-04-04T07:16:44.015Z,-2.72
2023-04-04T07:19:49.675Z,-2.72
2023-04-04T07:22:56.266Z,-2.65
2023-04-04T07:26:01.987Z,-2.72
2023-04-04T07:29:11.794Z,-2.73
2023-04-04T07:32:17.960Z,-2.75
2023-04-04T07:35:24.486Z,-2.73
2023-04-04T07:38:30.571Z,-2.76
2023-04-04T07:41:37.103Z,-2.77
2023-04-04T07:44:45.831Z,-2.65
2023-04-04T07:47:52.712Z,-2.66
2023-04-04T07:51:00.546Z,-2.60
2023-04-04T07:54:07.574Z,-2.60
2023-04-04T07:57:13.624Z,-2.60
2023-04-04T08:00:26.779Z,-2.62
2023-04-04T08:03:34.157Z,-2.60
2023-04-04T08:06:40.880Z,-2.49
2023-04-04T08:09:46.682Z,-2.52
2023-04-04T08:12:55.261Z,-2.38
2023-04-04T08:16:03.765Z,-2.23
2023-04-04T08:19:14.798Z,-2.18
2023-04-04T08:22:20.819Z,-2.19
2023-04-04T08:25:27.488Z,-2.07
2023-04-04T08:28:33.335Z,-1.86
2023-04-04T08:31:43.603Z,-1.88
2023-04-04T08:34:49.516Z,-1.69
2023-04-04T08:37:56.052Z,-1.51
2023-04-04T08:41:02.142Z,-1.58
2023-04-04T08:44:13.747Z,-1.62
2023-04-04T08:47:26.931Z,-1.56
2023-04-04T08:50:35.028Z,-1.45
2023-04-04T08:53:42.770Z,-1.39
2023-04-04T08:56:51.237Z,-1.18
2023-04-04T08:59:58.947Z,-1.13
2023-04-04T09:03:22.361Z,-1.13
2023-04-04T09:06:29.948Z,-0.90
2023-04-04T09:09:38.227Z,-0.87
2023-04-04T09:12:50.672Z,-0.87
2023-04-04T09:16:01.425Z,-0.78
2023-04-04T09:19:09.915Z,-0.52
2023-04-04T09:22:20.405Z,-0.40
2023-04-04T09:25:27.348Z,-0.42
2023-04-04T09:28:35.786Z,-0.46
2023-04-04T09:31:42.142Z,-0.24
2023-04-04T09:34:51.906Z,-0.09
2023-04-04T09:37:57.875Z,0.03
2023-04-04T09:41:04.787Z,-0.05
2023-04-04T09:44:14.237Z,0.06
2023-04-04T09:47:31.437Z,0.13
2023-04-04T09:50:48.865Z,0.21
2023-04-04T09:53:55.493Z,0.26
2023-04-04T09:57:01.749Z,0.21
2023-04-04T10:00:11.865Z,0.26
2023-04-04T10:03:21.421Z,0.29
2023-04-04T10:06:31.071Z,0.48
2023-04-04T10:09:41.911Z,1.01
2023-04-04T10:12:51.056Z,0.86
2023-04-04T10:15:58.872Z,0.86
2023-04-04T10:19:08.101Z,0.96
2023-04-04T10:22:20.303Z,0.89
2023-04-04T10:25:27.507Z,0.77
2023-04-04T10:28:33.254Z,0.88
2023-04-04T10:31:47.566Z,0.86
2023-04-04T10:35:04.149Z,0.78
2023-04-04T10:38:15.319Z,0.69
2023-04-04T10:41:24.622Z,0.63
2023-04-04T10:44:36.188Z,0.68
2023-04-04T10:47:44.100Z,0.82
2023-04-04T10:50:52.486Z,1.08
2023-04-04T10:54:03.033Z,0.94
2023-04-04T10:57:10.285Z,0.90
2023-04-04T11:00:20.575Z,0.80
2023-04-04T11:03:27.647Z,0.88
2023-04-04T11:07:20.920Z,1.02
2023-04-04T11:10:34.061Z,1.12
2023-04-04T11:13:41.794Z,1.12
2023-04-04T11:16:50.545Z,1.19
2023-04-04T11:20:04.200Z,1.21
2023-04-04T11:23:17.665Z,1.13
2023-04-04T11:26:39.901Z,1.22
2023-04-04T11:29:56.193Z,0.35
2023-04-04T11:33:07.334Z,1.12
2023-04-04T11:36:47.952Z,0.85
2023-04-04T11:39:57.602Z,0.88
2023-04-04T11:43:12.405Z,1.16
2023-04-04T11:46:21.590Z,1.27
2023-04-04T11:49:35.616Z,1.15
2023-04-04T11:52:41.525Z,1.19
2023-04-04T11:55:53.540Z,1.19
2023-04-04T11:59:11.048Z,1.21
2023-04-04T12:02:25.135Z,0.95
2023-04-04T12:05:31.380Z,0.69
2023-04-04T12:08:38.943Z,0.56
2023-04-04T12:11:45.418Z,0.51
2023-04-04T12:15:10.266Z,0.55
2023-04-04T12:18:26.670Z,0.54
2023-04-04T12:21:35.784Z,0.57
2023-04-04T12:24:42.628Z,0.65
2023-04-04T12:27:50.311Z,0.79
2023-04-04T12:31:05.240Z,0.72
2023-04-04T12:34:19.867Z,0.58
2023-04-04T12:37:27.405Z,0.54
2023-04-04T12:40:40.305Z,0.62
2023-04-04T12:43:46.235Z,0.57
2023-04-04T12:46:56.011Z,0.65
2023-04-04T12:50:01.701Z,0.78
2023-04-04T12:53:24.641Z,0.76
2023-04-04T12:56:35.571Z,0.94
2023-04-04T12:59:42.533Z,0.87
2023-04-04T13:02:54.756Z,1.04
2023-04-04T13:06:03.011Z,1.08
2023-04-04T13:09:08.917Z,0.88
2023-04-04T13:12:15.621Z,0.99
2023-04-04T13:15:21.566Z,0.72
2023-04-04T13:18:42.118Z,0.54
2023-04-04T13:21:48.125Z,0.28
2023-04-04T13:24:54.719Z,0.23
2023-04-04T13:28:00.463Z,0.23
2023-04-04T13:31:08.387Z,0.40
2023-04-04T13:34:17.176Z,0.45
2023-04-04T13:37:25.181Z,0.37
2023-04-04T13:40:31.208Z,0.64
2023-04-04T13:43:37.799Z,0.70
2023-04-04T13:46:45.429Z,0.66
2023-04-04T13:49:54.816Z,0.71
2023-04-04T13:53:00.911Z,0.80
2023-04-04T13:59:16.783Z,0.55
2023-04-04T14:02:23.677Z,0.40
2023-04-04T14:05:32.474Z,0.29
2023-04-04T14:08:39.112Z,0.12
2023-04-04T14:11:45.002Z,0.20
2023-04-04T14:14:52.082Z,0.31
2023-04-04T14:17:57.984Z,0.29
2023-04-04T14:21:08.793Z,0.35
2023-04-04T14:24:14.775Z,0.21
2023-04-04T14:27:21.449Z,0.16
2023-04-04T14:30:27.554Z,0.05
2023-04-04T14:33:34.078Z,0.07
2023-04-04T14:36:42.667Z,0.03
2023-04-04T14:39:50.351Z,-0.14
2023-04-04T14:42:56.116Z,-0.13
2023-04-04T14:46:02.866Z,-0.10
2023-04-04T14:49:09.010Z,-0.08
2023-04-04T14:52:18.560Z,-0.03
2023-04-04T14:55:24.328Z,-0.07
2023-04-04T14:58:30.905Z,0.08
2023-04-04T15:01:36.956Z,0.13
2023-04-04T15:04:43.710Z,0.12
2023-04-04T15:07:53.155Z,0.01
2023-04-04T15:10:59.833Z,-0.08
2023-04-04T15:14:06.119Z,-0.19
2023-04-04T15:17:12.856Z,-0.23
2023-04-04T15:20:18.825Z,-0.45
2023-04-04T15:23:28.131Z,-0.40
2023-04-04T15:26:33.752Z,-0.58
2023-04-04T15:29:40.529Z,-0.60
2023-04-04T15:32:46.304Z,-0.63
2023-04-04T15:35:52.982Z,-0.84
2023-04-04T15:39:01.419Z,-0.96
2023-04-04T15:42:08.391Z,-0.94
2023-04-04T15:45:18.846Z,-0.92
2023-04-04T15:48:26.105Z,-0.92
2023-04-04T15:51:33.522Z,-0.83
2023-04-04T15:54:42.918Z,-0.78
2023-04-04T15:57:49.238Z,-0.59
2023-04-04T16:00:56.765Z,-0.61
2023-04-04T16:04:02.490Z,-0.86
2023-04-04T16:07:09.692Z,-0.85
2023-04-04T16:10:18.503Z,-0.98
2023-04-04T16:13:25.032Z,-1.04
2023-04-04T16:16:30.694Z,-1.09
2023-04-04T16:19:37.241Z,-1.15
2023-04-04T16:22:43.079Z,-1.12
2023-04-04T16:25:52.662Z,-1.17
2023-04-04T16:28:58.255Z,-1.19
2023-04-04T16:32:06.147Z,-1.07
2023-04-04T16:35:13.053Z,-1.18
2023-04-04T16:38:20.203Z,-1.19
2023-04-04T16:41:29.956Z,-1.15
2023-04-04T16:44:37.869Z,-0.99
2023-04-04T16:47:43.771Z,-1.06
2023-04-04T16:50:50.287Z,-1.02
2023-04-04T16:53:56.700Z,-1.13
2023-04-04T16:57:07.666Z,-1.19
2023-04-04T17:00:14.930Z,-1.39
2023-04-04T17:03:21.879Z,-1.45
2023-04-04T17:06:27.955Z,-1.71
2023-04-04T17:09:36.011Z,-1.77
2023-04-04T17:12:46.915Z,-1.80
2023-04-04T17:15:53.638Z,-1.85
2023-04-04T17:18:59.360Z,-1.71
2023-04-04T17:22:06.965Z,-1.69
2023-04-04T17:25:13.234Z,-1.62
2023-04-04T17:28:23.266Z,-1.64
2023-04-04T17:31:29.310Z,-1.67
2023-04-04T17:34:36.139Z,-1.78
2023-04-04T17:37:42.031Z,-1.82
2023-04-04T17:40:48.818Z,-1.79
2023-04-04T17:43:57.599Z,-1.83
2023-04-04T17:47:04.313Z,-1.83
2023-04-04T17:50:11.920Z,-1.94
2023-04-04T17:53:18.884Z,-1.85
2023-04-04T17:56:24.920Z,-1.79
2023-04-04T17:59:34.555Z,-1.73
2023-04-04T18:02:40.600Z,-1.73
2023-04-04T18:05:47.490Z,-1.73
2023-04-04T18:08:53.309Z,-1.88
2023-04-04T18:12:00.272Z,-1.83
2023-04-04T18:15:10.676Z,-1.83
2023-04-04T18:18:25.423Z,-1.75
2023-04-04T18:21:31.509Z,-1.73
2023-04-04T18:24:38.130Z,-1.61
2023-04-04T18:27:43.885Z,-1.68
2023-04-04T18:30:53.854Z,-1.75
2023-04-04T18:33:59.697Z,-1.82
2023-04-04T18:37:06.777Z,-1.87
2023-04-04T18:40:13.528Z,-1.93
2023-04-04T18:43:20.117Z,-1.98
2023-04-04T18:46:29.018Z,-2.08
2023-04-04T18:49:35.802Z,-2.01
2023-04-04T18:52:43.774Z,-1.99
2023-04-04T18:55:53.521Z,-2.02
2023-04-04T18:58:59.549Z,-2.05
2023-04-04T19:02:09.493Z,-2.08
2023-04-04T19:05:16.678Z,-2.26
2023-04-04T19:08:24.436Z,-2.12
2023-04-04T19:11:30.979Z,-2.12
2023-04-04T19:14:37.923Z,-2.14
2023-04-04T19:17:47.566Z,-2.13
2023-04-04T19:20:55.227Z,-2.21
2023-04-04T19:24:02.532Z,-2.17
2023-04-04T19:27:10.636Z,-2.11
2023-04-04T19:30:47.848Z,-2.14
2023-04-04T19:33:57.812Z,-2.13
2023-04-04T19:37:03.705Z,-2.16
2023-04-04T19:40:19.526Z,-2.27
2023-04-04T19:43:26.555Z,-2.34
2023-04-04T19:46:35.353Z,-2.36
2023-04-04T19:49:45.781Z,-2.32
2023-04-04T19:52:53.400Z,-2.37
2023-04-04T19:55:59.783Z,-2.38
2023-04-04T19:59:10.807Z,-2.47
2023-04-04T20:03:09.161Z,-2.51
2023-04-04T20:06:28.637Z,-2.49
2023-04-04T20:09:40.397Z,-2.47
2023-04-04T20:12:47.464Z,-2.54
2023-04-04T20:16:02.118Z,-2.50
2023-04-04T20:19:10.114Z,-2.50
2023-04-04T20:22:19.230Z,-2.45
2023-04-04T20:25:44.447Z,-2.48
2023-04-04T20:28:50.197Z,-2.60
2023-04-04T20:32:03.847Z,-2.55
2023-04-04T20:35:11.670Z,-2.58
2023-04-04T20:38:24.726Z,-2.63
2023-04-04T20:41:30.568Z,-2.63
2023-04-04T20:44:37.726Z,-2.67
2023-04-04T20:47:49.477Z,-2.65
2023-04-04T20:50:56.891Z,-2.68
2023-04-04T20:54:07.123Z,-2.68
2023-04-04T20:57:24.469Z,-2.67
2023-04-04T21:00:44.328Z,-2.68
2023-04-04T21:03:52.206Z,-2.70
2023-04-04T21:06:59.980Z,-2.78
2023-04-04T21:10:26.125Z,-2.70
2023-04-04T21:13:39.954Z,-2.67
2023-04-04T21:16:47.253Z,-2.68
2023-04-04T21:19:53.391Z,-2.63
2023-04-04T21:22:59.958Z,-2.57
2023-04-04T21:26:14.170Z,-2.61
2023-04-04T21:29:26.840Z,-2.44
2023-04-04T21:32:33.574Z,-2.40
2023-04-04T21:35:51.308Z,-2.36
2023-04-04T21:39:03.859Z,-2.40
2023-04-04T21:42:13.185Z,-2.40
2023-04-04T21:45:18.868Z,-2.44
2023-04-04T21:48:25.765Z,-2.43
2023-04-04T21:51:32.162Z,-2.47
2023-04-04T21:54:38.836Z,-2.50
2023-04-04T21:57:47.446Z,-2.51
2023-04-04T22:00:57.421Z,-2.59
2023-04-04T22:04:03.676Z,-2.61
2023-04-04T22:07:10.794Z,-2.55
2023-04-04T22:10:19.295Z,-2.59
2023-04-04T22:13:34.121Z,-2.57
2023-04-04T22:16:43.265Z,-2.60
2023-04-04T22:19:59.945Z,-2.63
2023-04-04T22:23:07.802Z,-2.55
2023-04-04T22:26:29.224Z,-2.89
2023-04-04T22:29:38.055Z,-2.51
2023-04-04T22:32:44.921Z,-2.57
2023-04-04T22:35:51.397Z,-2.52
2023-04-04T22:38:59.874Z,-2.51
2023-04-04T22:42:05.728Z,-2.47
2023-04-04T22:45:15.705Z,-2.42
2023-04-04T22:48:25.044Z,-2.44
2023-04-04T22:51:35.175Z,-2.43
2023-04-04T22:54:41.002Z,-2.38
2023-04-04T22:57:47.797Z,-2.42
2023-04-04T23:00:56.513Z,-2.42
2023-04-04T23:04:03.293Z,-2.43
2023-04-04T23:07:09.290Z,-2.42
2023-04-04T23:10:19.173Z,-2.44
2023-04-04T23:13:25.836Z,-2.51
2023-04-04T23:16:35.864Z,-2.53
2023-04-04T23:19:42.546Z,-2.56
2023-04-04T23:22:49.314Z,-2.63
2023-04-04T23:25:54.992Z,-2.68
2023-04-04T23:29:01.661Z,-2.77
2023-04-04T23:32:11.605Z,-2.78
2023-04-04T23:35:18.493Z,-2.80
2023-04-04T23:38:24.134Z,-2.84
2023-04-04T23:41:32.798Z,-2.89
2023-04-04T23:44:38.502Z,-2.84
2023-04-04T23:47:48.010Z,-2.82
2023-04-04T23:50:54.706Z,-2.80
2023-04-04T23:54:02.231Z,-2.76
2023-04-04T23:57:08.111Z,-2.88
